Time;durP1;ratioP1;P1;durP2;ratioP2;P2;SDS_P1;SDS_P2;PMS_P1;PMS_P2;Temp;Humidity;BMP_temperature;BMP_pressure;BME280_temperature;BME280_humidity;BME280_pressure;Samples;Min_cycle;Max_cycle;Signal;HPM_P1;HPM_P2
2021/08/04 00:00:39;;;;;;;;;;;13.10;99.90;;;;;;5062074;28;19962;-77
2021/08/04 00:03:04;;;;;;;;;;;13.20;99.90;;;;;;5041512;28;19920;-76
2021/08/04 00:05:30;;;;;;;;;;;13.10;99.90;;;;;;5047938;28;19920;-77
2021/08/04 00:07:56;;;;;;;;;;;13.10;99.90;;;;;;5048880;28;19956;-85
2021/08/04 00:10:21;;;;;;;;;;;13.10;99.90;;;;;;5062410;28;19909;-76
2021/08/04 00:12:47;;;;;;;;;;;13.10;99.90;;;;;;5053957;28;20386;-78
2021/08/04 00:15:13;;;;;;;;;;;13.00;99.90;;;;;;5054578;28;20254;-77
2021/08/04 00:17:40;;;;;;;;;;;13.00;99.90;;;;;;5053393;28;19917;-77
2021/08/04 00:20:06;;;;;;;;;;;13.00;99.90;;;;;;5056753;28;20255;-76
2021/08/04 00:22:32;;;;;;;;;;;13.00;99.90;;;;;;5055974;28;19912;-76
2021/08/04 00:24:57;;;;;;;;;;;13.00;99.90;;;;;;5074369;28;20019;-79
2021/08/04 00:27:26;;;;;;;;;;;13.00;99.90;;;;;;5077972;28;20222;-78
2021/08/04 00:29:52;;;;;;;;;;;13.00;99.90;;;;;;5056238;28;19948;-77
2021/08/04 00:32:19;;;;;;;;;;;13.00;99.90;;;;;;5050494;28;19967;-80
2021/08/04 00:34:45;;;;;;;;;;;13.00;99.90;;;;;;5047933;28;19909;-77
2021/08/04 00:37:11;;;;;;;;;;;13.00;99.90;;;;;;5065039;28;20004;-78
2021/08/04 00:39:36;;;;;;;;;;;13.00;99.90;;;;;;5070272;28;20008;-76
2021/08/04 00:42:02;;;;;;;;;;;13.00;99.90;;;;;;5077451;28;19916;-81
2021/08/04 00:44:28;;;;;;;;;;;13.10;99.90;;;;;;5055635;28;19917;-78
2021/08/04 00:46:53;;;;;;;;;;;13.00;99.90;;;;;;5062781;28;19962;-76
2021/08/04 00:49:19;;;;;;;;;;;13.00;99.90;;;;;;5059173;28;19943;-77
2021/08/04 00:51:45;;;;;;;;;;;13.10;99.90;;;;;;5076517;28;19912;-77
2021/08/04 00:54:10;;;;;;;;;;;13.00;99.90;;;;;;5055616;28;19920;-77
2021/08/04 00:56:36;;;;;;;;;;;13.00;99.90;;;;;;5059450;28;19935;-77
2021/08/04 00:59:03;;;;;;;;;;;13.00;99.90;;;;;;5076825;28;20011;-77
2021/08/04 01:01:34;;;;;;;;;;;13.00;99.90;;;;;;5054290;28;19939;-77
2021/08/04 01:04:06;;;;;;;;;;;12.90;99.90;;;;;;5075042;28;19924;-77
2021/08/04 01:06:34;;;;;;;;;;;12.80;99.90;;;;;;5075933;28;20208;-77
2021/08/04 01:09:00;;;;;;;;;;;12.80;99.90;;;;;;5056070;28;19913;-77
2021/08/04 01:11:28;;;;;;;;;;;12.70;99.90;;;;;;5059397;28;19915;-76
2021/08/04 01:13:55;;;;;;;;;;;12.70;99.90;;;;;;5064230;28;19917;-76
2021/08/04 01:16:24;;;;;;;;;;;12.70;99.90;;;;;;5077091;28;20211;-76
2021/08/04 01:18:50;;;;;;;;;;;12.70;99.90;;;;;;5076443;28;19916;-76
2021/08/04 01:21:19;;;;;;;;;;;12.70;99.90;;;;;;5076265;28;19920;-77
2021/08/04 01:23:52;;;;;;;;;;;12.70;99.90;;;;;;5058534;28;19916;-76
2021/08/04 01:26:35;;;;;;;;;;;12.60;99.90;;;;;;5048106;28;19924;-76
2021/08/04 01:29:01;;;;;;;;;;;12.70;99.90;;;;;;5058846;28;19931;-75
2021/08/04 01:31:27;;;;;;;;;;;12.70;99.90;;;;;;5055408;28;20307;-76
2021/08/04 01:33:54;;;;;;;;;;;12.80;99.90;;;;;;5075287;28;19917;-76
2021/08/04 01:36:20;;;;;;;;;;;12.80;99.90;;;;;;5055486;28;20266;-80
2021/08/04 01:38:45;;;;;;;;;;;12.80;99.90;;;;;;5074944;28;19920;-77
2021/08/04 01:41:12;;;;;;;;;;;12.80;99.90;;;;;;5058984;28;19934;-77
2021/08/04 01:43:38;;;;;;;;;;;12.70;99.90;;;;;;5066364;28;19916;-78
2021/08/04 01:46:05;;;;;;;;;;;12.60;99.90;;;;;;5076534;28;19917;-77
2021/08/04 01:48:31;;;;;;;;;;;12.50;99.90;;;;;;5057756;28;20015;-77
2021/08/04 01:50:59;;;;;;;;;;;12.40;99.90;;;;;;5075736;28;20331;-76
2021/08/04 01:53:25;;;;;;;;;;;12.40;99.90;;;;;;5072372;28;20318;-84
2021/08/04 01:55:51;;;;;;;;;;;12.40;99.90;;;;;;5074907;28;19919;-76
2021/08/04 01:58:17;;;;;;;;;;;12.40;99.90;;;;;;5075259;28;19916;-76
2021/08/04 02:00:44;;;;;;;;;;;12.40;99.90;;;;;;5057714;28;20293;-76
2021/08/04 02:03:10;;;;;;;;;;;12.40;99.90;;;;;;5074688;28;19916;-76
2021/08/04 02:05:35;;;;;;;;;;;12.50;99.90;;;;;;5057061;28;19915;-77
2021/08/04 02:08:13;;;;;;;;;;;12.50;99.90;;;;;;5052732;28;19919;-76
2021/08/04 02:10:46;;;;;;;;;;;12.50;99.90;;;;;;5073937;28;19911;-76
2021/08/04 02:13:32;;;;;;;;;;;12.40;99.90;;;;;;5055931;28;19962;-77
2021/08/04 02:16:19;;;;;;;;;;;12.40;99.90;;;;;;5074352;28;19913;-77
2021/08/04 02:18:51;;;;;;;;;;;12.30;99.90;;;;;;5069429;28;19917;-80
2021/08/04 02:21:20;;;;;;;;;;;12.30;99.90;;;;;;5058156;28;19909;-77
2021/08/04 02:23:46;;;;;;;;;;;12.30;99.90;;;;;;5054662;28;20688;-77
2021/08/04 02:26:12;;;;;;;;;;;12.30;99.90;;;;;;5058117;28;20257;-79
2021/08/04 02:28:39;;;;;;;;;;;12.30;99.90;;;;;;5056894;28;19966;-77
2021/08/04 02:31:09;;;;;;;;;;;12.40;99.90;;;;;;5056940;28;20016;-77
2021/08/04 02:33:35;;;;;;;;;;;12.30;99.90;;;;;;5057855;28;19909;-77
2021/08/04 02:36:01;;;;;;;;;;;12.40;99.90;;;;;;5074269;28;19970;-77
2021/08/04 02:38:28;;;;;;;;;;;12.30;99.90;;;;;;5056835;28;19916;-83
2021/08/04 02:40:54;;;;;;;;;;;12.40;99.90;;;;;;5057586;28;19964;-76
2021/08/04 02:43:20;;;;;;;;;;;12.50;99.90;;;;;;5072945;28;19966;-77
2021/08/04 02:45:46;;;;;;;;;;;12.50;99.90;;;;;;5049735;28;19908;-77
2021/08/04 02:48:13;;;;;;;;;;;12.40;99.90;;;;;;5073995;28;20006;-78
2021/08/04 02:50:43;;;;;;;;;;;12.40;99.90;;;;;;5074568;28;19908;-76
2021/08/04 02:53:09;;;;;;;;;;;12.40;99.90;;;;;;5048827;28;20208;-80
2021/08/04 02:55:34;;;;;;;;;;;12.50;99.90;;;;;;5056911;28;19965;-77
2021/08/04 02:58:00;;;;;;;;;;;12.50;99.90;;;;;;5051276;28;20271;-78
2021/08/04 03:00:25;;;;;;;;;;;12.50;99.90;;;;;;5074626;28;19912;-76
2021/08/04 03:02:51;;;;;;;;;;;12.50;99.90;;;;;;5055015;28;19955;-76
2021/08/04 03:05:16;;;;;;;;;;;12.50;99.90;;;;;;5057009;28;19954;-81
2021/08/04 03:07:42;;;;;;;;;;;12.50;99.90;;;;;;5072741;28;19909;-77
2021/08/04 03:10:08;;;;;;;;;;;12.50;99.90;;;;;;5074713;28;20591;-77
2021/08/04 03:12:34;;;;;;;;;;;12.50;99.90;;;;;;5067671;28;19918;-78
2021/08/04 03:14:59;;;;;;;;;;;12.50;99.90;;;;;;5072448;28;19999;-77
2021/08/04 03:17:25;;;;;;;;;;;12.40;99.90;;;;;;5052640;28;19921;-78
2021/08/04 03:19:50;;;;;;;;;;;12.40;99.90;;;;;;5069744;28;19913;-80
2021/08/04 03:22:16;;;;;;;;;;;12.30;99.90;;;;;;5073061;28;19917;-77
2021/08/04 03:24:41;;;;;;;;;;;12.20;99.90;;;;;;5071948;28;20378;-78
2021/08/04 03:27:07;;;;;;;;;;;12.20;99.90;;;;;;5053632;28;20253;-77
2021/08/04 03:29:33;;;;;;;;;;;12.20;99.90;;;;;;5074561;28;19932;-84
2021/08/04 03:31:58;;;;;;;;;;;12.20;99.90;;;;;;5074446;28;19909;-77
2021/08/04 03:34:24;;;;;;;;;;;12.20;99.90;;;;;;5073706;28;19943;-77
2021/08/04 03:36:49;;;;;;;;;;;12.20;99.90;;;;;;5070483;28;19920;-79
2021/08/04 03:39:15;;;;;;;;;;;12.20;99.90;;;;;;5069632;28;19921;-80
2021/08/04 03:41:41;;;;;;;;;;;12.20;99.90;;;;;;5045122;28;20284;-76
2021/08/04 03:44:06;;;;;;;;;;;12.30;99.90;;;;;;5074043;28;19952;-77
2021/08/04 03:46:32;;;;;;;;;;;12.20;99.90;;;;;;5070931;28;19956;-81
2021/08/04 03:48:58;;;;;;;;;;;12.20;99.90;;;;;;5073340;28;20368;-77
2021/08/04 03:51:23;;;;;;;;;;;12.20;99.90;;;;;;5055450;28;20350;-78
2021/08/04 03:53:49;;;;;;;;;;;12.30;99.90;;;;;;5056058;28;19920;-78
2021/08/04 03:56:14;;;;;;;;;;;12.30;99.90;;;;;;5070059;28;19920;-80
2021/08/04 03:58:40;;;;;;;;;;;12.40;99.90;;;;;;5073923;28;19944;-77
2021/08/04 04:01:05;;;;;;;;;;;12.40;99.90;;;;;;5059659;28;20299;-77
2021/08/04 04:03:31;;;;;;;;;;;12.40;99.90;;;;;;5069724;28;20065;-76
2021/08/04 04:05:57;;;;;;;;;;;12.40;99.90;;;;;;5060480;28;19931;-84
2021/08/04 04:08:23;;;;;;;;;;;12.30;99.90;;;;;;5073377;28;19916;-77
2021/08/04 04:10:48;;;;;;;;;;;12.30;99.90;;;;;;5077953;28;19923;-78
2021/08/04 04:13:14;;;;;;;;;;;12.30;99.90;;;;;;5077274;28;20233;-78
2021/08/04 04:15:39;;;;;;;;;;;12.30;99.90;;;;;;5056963;28;19913;-85
2021/08/04 04:18:05;;;;;;;;;;;12.30;99.90;;;;;;5073690;28;19912;-77
2021/08/04 04:20:31;;;;;;;;;;;12.30;99.90;;;;;;5076153;28;19912;-77
2021/08/04 04:22:56;;;;;;;;;;;12.30;99.90;;;;;;5070958;28;20364;-78
2021/08/04 04:25:22;;;;;;;;;;;12.20;99.90;;;;;;5058530;28;19954;-85
2021/08/04 04:27:48;;;;;;;;;;;12.20;99.90;;;;;;5055370;28;19916;-77
2021/08/04 04:30:13;;;;;;;;;;;12.30;99.90;;;;;;5056887;28;19923;-79
2021/08/04 04:32:39;;;;;;;;;;;12.30;99.90;;;;;;5071808;28;19964;-78
2021/08/04 04:35:05;;;;;;;;;;;12.40;99.90;;;;;;5049387;28;20227;-77
2021/08/04 04:37:31;;;;;;;;;;;12.40;99.90;;;;;;5052743;28;19927;-76
2021/08/04 04:39:56;;;;;;;;;;;12.40;99.90;;;;;;5070054;28;19916;-77
2021/08/04 04:42:24;;;;;;;;;;;12.30;99.90;;;;;;5071917;28;19916;-87
2021/08/04 04:44:50;;;;;;;;;;;12.40;99.90;;;;;;5074134;28;19969;-77
2021/08/04 04:47:15;;;;;;;;;;;12.40;99.90;;;;;;5073268;28;19982;-77
2021/08/04 04:49:41;;;;;;;;;;;12.40;99.90;;;;;;5071465;28;20323;-86
2021/08/04 04:52:07;;;;;;;;;;;12.50;99.90;;;;;;5074741;28;19912;-78
2021/08/04 04:54:32;;;;;;;;;;;12.50;99.90;;;;;;5066419;28;19927;-78
2021/08/04 05:00:03;;;;;;;;;;;12.50;99.90;;;;;;5067676;28;19958;-86
2021/08/04 05:02:28;;;;;;;;;;;12.40;99.90;;;;;;5065535;28;19966;-78
2021/08/04 05:04:56;;;;;;;;;;;12.40;99.90;;;;;;5063972;28;19952;-77
2021/08/04 05:07:21;;;;;;;;;;;12.40;99.90;;;;;;5068210;28;19975;-77
2021/08/04 05:09:47;;;;;;;;;;;12.50;99.90;;;;;;5071610;28;20280;-78
2021/08/04 05:12:12;;;;;;;;;;;12.50;99.90;;;;;;5063649;28;20271;-86
2021/08/04 05:14:40;;;;;;;;;;;12.50;99.90;;;;;;5064313;28;19913;-77
2021/08/04 05:17:07;;;;;;;;;;;12.60;99.90;;;;;;5066265;28;20252;-78
2021/08/04 05:19:32;;;;;;;;;;;12.60;99.90;;;;;;5065645;28;19928;-77
2021/08/04 05:21:58;;;;;;;;;;;12.60;99.90;;;;;;5066696;28;19912;-77
2021/08/04 05:24:24;;;;;;;;;;;12.60;99.90;;;;;;5066328;28;19916;-77
2021/08/04 05:26:49;;;;;;;;;;;12.70;99.90;;;;;;5064371;28;19927;-77
2021/08/04 05:29:15;;;;;;;;;;;12.80;99.90;;;;;;5063969;28;19920;-85
2021/08/04 05:31:40;;;;;;;;;;;12.80;99.90;;;;;;5067581;28;19916;-85
2021/08/04 05:34:06;;;;;;;;;;;12.90;99.90;;;;;;5067246;28;20006;-78
2021/08/04 05:36:32;;;;;;;;;;;12.90;99.90;;;;;;5066253;28;19924;-77
2021/08/04 05:38:58;;;;;;;;;;;12.90;99.90;;;;;;5065870;28;20302;-77
2021/08/04 05:41:23;;;;;;;;;;;12.90;99.90;;;;;;5065564;28;20006;-77
2021/08/04 05:43:49;;;;;;;;;;;13.00;99.90;;;;;;5067207;28;19912;-77
2021/08/04 05:46:15;;;;;;;;;;;13.00;99.90;;;;;;5064119;28;20311;-77
2021/08/04 05:48:40;;;;;;;;;;;13.10;99.90;;;;;;5065151;28;20319;-77
2021/08/04 05:51:06;;;;;;;;;;;13.10;99.90;;;;;;5066884;28;19991;-78
2021/08/04 05:53:31;;;;;;;;;;;13.20;99.90;;;;;;5065464;28;19913;-78
2021/08/04 05:55:57;;;;;;;;;;;13.20;99.90;;;;;;5064557;28;19920;-77
2021/08/04 05:58:22;;;;;;;;;;;13.30;99.90;;;;;;5065579;28;20378;-77
2021/08/04 06:00:48;;;;;;;;;;;13.40;99.90;;;;;;5067009;28;19920;-77
2021/08/04 06:03:14;;;;;;;;;;;13.40;99.90;;;;;;5070643;28;19951;-76
2021/08/04 06:05:40;;;;;;;;;;;13.50;99.90;;;;;;5062890;28;20346;-77
2021/08/04 06:08:07;;;;;;;;;;;13.60;99.90;;;;;;5065755;28;19920;-77
2021/08/04 06:10:34;;;;;;;;;;;13.70;99.90;;;;;;5067458;28;19917;-77
2021/08/04 06:12:59;;;;;;;;;;;13.80;99.90;;;;;;5064257;28;19913;-76
2021/08/04 06:15:25;;;;;;;;;;;14.00;99.90;;;;;;5066063;28;19923;-77
2021/08/04 06:17:51;;;;;;;;;;;14.10;99.90;;;;;;5065087;28;20304;-77
2021/08/04 06:20:16;;;;;;;;;;;14.20;99.90;;;;;;5062518;28;19909;-76
2021/08/04 06:22:42;;;;;;;;;;;14.30;99.90;;;;;;5078867;28;20386;-79
2021/08/04 06:25:08;;;;;;;;;;;14.40;99.90;;;;;;5068680;28;20003;-76
2021/08/04 06:27:33;;;;;;;;;;;14.50;99.90;;;;;;5061105;28;20299;-77
2021/08/04 06:29:59;;;;;;;;;;;14.50;99.90;;;;;;5071276;28;19916;-76
2021/08/04 06:32:25;;;;;;;;;;;14.70;99.90;;;;;;5066851;28;20134;-78
2021/08/04 06:34:50;;;;;;;;;;;14.70;99.90;;;;;;5068958;28;19958;-77
2021/08/04 06:37:16;;;;;;;;;;;14.80;99.90;;;;;;5066680;28;19927;-76
2021/08/04 06:39:42;;;;;;;;;;;14.90;99.90;;;;;;5069474;28;19916;-78
2021/08/04 06:42:07;;;;;;;;;;;14.90;99.90;;;;;;5069654;28;19962;-77
2021/08/04 06:44:33;;;;;;;;;;;15.00;99.90;;;;;;5068389;28;20342;-76
2021/08/04 06:46:59;;;;;;;;;;;15.00;99.90;;;;;;5058884;28;19929;-76
2021/08/04 06:49:24;;;;;;;;;;;15.20;99.90;;;;;;5069900;28;19927;-80
2021/08/04 06:51:52;;;;;;;;;;;15.30;99.90;;;;;;5070027;28;19916;-77
2021/08/04 06:54:19;;;;;;;;;;;15.30;99.90;;;;;;5072098;28;19916;-76
2021/08/04 06:56:44;;;;;;;;;;;15.30;99.90;;;;;;5071043;28;20028;-77
2021/08/04 06:59:10;;;;;;;;;;;15.40;99.90;;;;;;5066544;28;20082;-77
2021/08/04 07:01:36;;;;;;;;;;;15.50;99.90;;;;;;5060189;28;20351;-76
2021/08/04 07:04:01;;;;;;;;;;;15.50;99.90;;;;;;5063926;28;19924;-76
2021/08/04 07:06:27;;;;;;;;;;;15.50;99.90;;;;;;5064548;28;19952;-77
2021/08/04 07:08:52;;;;;;;;;;;15.60;99.90;;;;;;5069435;28;19920;-77
2021/08/04 07:11:22;;;;;;;;;;;15.60;99.90;;;;;;5062893;28;19919;-77
2021/08/04 07:13:48;;;;;;;;;;;15.70;99.90;;;;;;5065264;28;20283;-76
2021/08/04 07:16:17;;;;;;;;;;;15.80;99.90;;;;;;5066490;28;19921;-77
2021/08/04 07:18:43;;;;;;;;;;;15.80;99.90;;;;;;5068671;28;20289;-79
2021/08/04 07:21:08;;;;;;;;;;;15.90;99.90;;;;;;5062880;28;19916;-77
2021/08/04 07:23:34;;;;;;;;;;;16.00;99.90;;;;;;5063924;28;19931;-75
2021/08/04 07:25:59;;;;;;;;;;;16.10;99.90;;;;;;5063280;28;20335;-75
2021/08/04 07:28:25;;;;;;;;;;;16.10;99.90;;;;;;5078709;28;20212;-76
2021/08/04 07:30:51;;;;;;;;;;;16.20;99.90;;;;;;5062045;28;20299;-76
2021/08/04 07:33:16;;;;;;;;;;;16.30;99.90;;;;;;5060959;28;19931;-80
2021/08/04 07:35:42;;;;;;;;;;;16.40;99.90;;;;;;5063749;28;19927;-76
2021/08/04 07:38:07;;;;;;;;;;;16.50;99.90;;;;;;5065245;28;19952;-79
2021/08/04 07:40:33;;;;;;;;;;;16.60;99.90;;;;;;5066213;28;20212;-75
2021/08/04 07:42:59;;;;;;;;;;;16.70;99.90;;;;;;5073403;28;19921;-75
2021/08/04 07:45:24;;;;;;;;;;;16.80;99.90;;;;;;5069203;28;19924;-75
2021/08/04 07:47:50;;;;;;;;;;;16.90;99.90;;;;;;5068517;28;20274;-76
2021/08/04 07:50:16;;;;;;;;;;;16.90;99.90;;;;;;5064682;28;20383;-75
2021/08/04 07:52:42;;;;;;;;;;;17.10;99.90;;;;;;5063043;28;19912;-76
2021/08/04 07:55:08;;;;;;;;;;;17.20;99.90;;;;;;5063901;28;19927;-76
2021/08/04 07:57:34;;;;;;;;;;;17.30;99.90;;;;;;5064699;28;20014;-77
2021/08/04 07:59:59;;;;;;;;;;;17.40;99.90;;;;;;5064784;28;19960;-87
2021/08/04 08:02:25;;;;;;;;;;;17.50;99.90;;;;;;5062834;28;20294;-75
2021/08/04 08:04:51;;;;;;;;;;;17.70;99.90;;;;;;5067539;28;20311;-75
2021/08/04 08:07:16;;;;;;;;;;;17.80;99.90;;;;;;5061789;28;19917;-77
2021/08/04 08:09:42;;;;;;;;;;;17.90;99.90;;;;;;5064984;28;20299;-86
2021/08/04 08:12:08;;;;;;;;;;;17.90;99.90;;;;;;5066019;28;19920;-81
2021/08/04 08:14:33;;;;;;;;;;;18.10;99.90;;;;;;5062651;28;20017;-77
2021/08/04 08:16:59;;;;;;;;;;;18.40;99.90;;;;;;5063477;28;19917;-76
2021/08/04 08:19:25;;;;;;;;;;;18.40;99.90;;;;;;5066035;28;20188;-81
2021/08/04 08:21:50;;;;;;;;;;;18.50;99.90;;;;;;5064637;28;19912;-77
2021/08/04 08:24:16;;;;;;;;;;;18.60;99.90;;;;;;5062291;28;19921;-78
2021/08/04 08:26:42;;;;;;;;;;;18.70;99.90;;;;;;5064956;28;20026;-76
2021/08/04 08:29:08;;;;;;;;;;;18.60;99.90;;;;;;5081695;28;19943;-79
2021/08/04 08:31:34;;;;;;;;;;;18.80;99.90;;;;;;5065125;28;20308;-76
2021/08/04 08:34:00;;;;;;;;;;;18.80;99.90;;;;;;5062802;28;20003;-77
2021/08/04 08:36:27;;;;;;;;;;;19.00;99.90;;;;;;5063659;28;20028;-77
2021/08/04 08:38:52;;;;;;;;;;;19.00;99.90;;;;;;5063690;28;20402;-76
2021/08/04 08:41:18;;;;;;;;;;;19.10;99.90;;;;;;5065237;28;19917;-78
2021/08/04 08:43:45;;;;;;;;;;;19.20;99.90;;;;;;5067784;28;19924;-76
2021/08/04 08:46:11;;;;;;;;;;;19.30;99.90;;;;;;5071390;28;19916;-79
2021/08/04 08:48:37;;;;;;;;;;;19.30;99.90;;;;;;5070920;28;19927;-77
2021/08/04 08:51:03;;;;;;;;;;;19.60;99.90;;;;;;5071367;28;20003;-76
2021/08/04 08:53:28;;;;;;;;;;;19.60;99.90;;;;;;5080052;28;20254;-76
2021/08/04 08:55:54;;;;;;;;;;;19.60;99.90;;;;;;5066513;28;19916;-76
2021/08/04 08:58:20;;;;;;;;;;;19.60;99.90;;;;;;5061299;28;19912;-76
2021/08/04 09:00:45;;;;;;;;;;;19.70;99.90;;;;;;5065259;28;19965;-76
2021/08/04 09:03:11;;;;;;;;;;;19.80;99.90;;;;;;5069714;28;20048;-76
2021/08/04 09:05:46;;;;;;;;;;;19.80;99.90;;;;;;5072275;28;19931;-82
2021/08/04 09:08:25;;;;;;;;;;;19.80;99.90;;;;;;5067507;28;19920;-77
2021/08/04 09:10:51;;;;;;;;;;;19.80;99.90;;;;;;5072098;28;20303;-77
2021/08/04 09:13:18;;;;;;;;;;;19.90;99.90;;;;;;5073382;28;19954;-77
2021/08/04 09:15:43;;;;;;;;;;;19.90;99.90;;;;;;5068375;28;20410;-77
2021/08/04 09:18:10;;;;;;;;;;;19.90;99.90;;;;;;5064656;28;19931;-75
2021/08/04 09:20:53;;;;;;;;;;;19.80;99.90;;;;;;5069569;28;20371;-82
2021/08/04 09:23:23;;;;;;;;;;;19.80;99.90;;;;;;5069623;28;19958;-76
2021/08/04 09:26:04;;;;;;;;;;;20.00;99.90;;;;;;5078051;28;19996;-77
2021/08/04 09:28:29;;;;;;;;;;;20.00;99.90;;;;;;5068104;28;19919;-76
2021/08/04 09:30:59;;;;;;;;;;;20.10;99.90;;;;;;5064565;28;19916;-76
2021/08/04 09:33:27;;;;;;;;;;;20.20;99.90;;;;;;5069456;28;19939;-77
2021/08/04 09:35:54;;;;;;;;;;;20.20;99.90;;;;;;5064867;28;19962;-76
2021/08/04 09:38:20;;;;;;;;;;;20.30;99.90;;;;;;5068213;28;19925;-76
2021/08/04 09:40:47;;;;;;;;;;;20.40;99.90;;;;;;5063747;28;19921;-81
2021/08/04 09:43:23;;;;;;;;;;;20.30;99.90;;;;;;5062535;28;19974;-78
2021/08/04 09:45:49;;;;;;;;;;;20.10;99.90;;;;;;5062771;28;19994;-81
2021/08/04 09:48:16;;;;;;;;;;;20.20;99.90;;;;;;5060125;28;20265;-77
2021/08/04 09:50:49;;;;;;;;;;;20.20;99.90;;;;;;5066742;28;19916;-85
2021/08/04 09:53:41;;;;;;;;;;;20.40;99.90;;;;;;5075074;28;19917;-76
2021/08/04 09:56:13;;;;;;;;;;;20.10;99.90;;;;;;5058743;28;19916;-79
2021/08/04 09:58:40;;;;;;;;;;;20.00;99.90;;;;;;5068426;28;19970;-78
2021/08/04 10:01:06;;;;;;;;;;;20.10;99.90;;;;;;5068528;28;20008;-78
2021/08/04 10:03:32;;;;;;;;;;;20.20;99.90;;;;;;5067125;28;19996;-78
2021/08/04 10:05:58;;;;;;;;;;;20.10;99.90;;;;;;5068821;28;20211;-79
2021/08/04 10:08:24;;;;;;;;;;;20.20;99.90;;;;;;5064740;28;19913;-78
2021/08/04 10:10:51;;;;;;;;;;;20.10;99.90;;;;;;5075888;28;19909;-76
2021/08/04 10:13:18;;;;;;;;;;;20.10;99.90;;;;;;5074886;28;19989;-77
2021/08/04 10:15:47;;;;;;;;;;;20.30;99.90;;;;;;5072563;28;20193;-84
2021/08/04 10:18:14;;;;;;;;;;;20.30;99.90;;;;;;5090331;28;19965;-79
2021/08/04 10:20:40;;;;;;;;;;;20.30;99.90;;;;;;5071414;28;19952;-77
2021/08/04 10:23:06;;;;;;;;;;;20.20;99.90;;;;;;5072017;28;19979;-77
2021/08/04 10:25:33;;;;;;;;;;;20.00;99.90;;;;;;5069594;28;20007;-80
2021/08/04 10:28:00;;;;;;;;;;;20.00;99.90;;;;;;5069994;28;19940;-78
2021/08/04 10:30:26;;;;;;;;;;;19.90;99.90;;;;;;5067780;28;19936;-78
2021/08/04 10:32:52;;;;;;;;;;;20.00;99.90;;;;;;5067924;28;20300;-76
2021/08/04 10:35:18;;;;;;;;;;;20.10;99.90;;;;;;5055459;28;19955;-82
2021/08/04 10:37:44;;;;;;;;;;;20.00;99.90;;;;;;5061458;28;20014;-84
2021/08/04 10:40:10;;;;;;;;;;;19.90;99.90;;;;;;5070637;28;19916;-78
2021/08/04 10:42:40;;;;;;;;;;;19.80;99.90;;;;;;5075145;28;20322;-76
2021/08/04 10:45:22;;;;;;;;;;;19.90;99.90;;;;;;5067363;28;19913;-79
2021/08/04 10:47:48;;;;;;;;;;;19.90;99.90;;;;;;5065389;28;20215;-83
2021/08/04 10:50:14;;;;;;;;;;;19.80;99.90;;;;;;5064388;28;19941;-81
2021/08/04 10:53:15;;;;;;;;;;;19.90;99.90;;;;;;5064221;28;19963;-84
2021/08/04 10:55:53;;;;;;;;;;;20.10;99.90;;;;;;5024777;28;19927;-77
2021/08/04 10:58:19;;;;;;;;;;;20.20;99.90;;;;;;5035048;28;19916;-77
2021/08/04 11:00:45;;;;;;;;;;;20.40;99.90;;;;;;5052418;28;19927;-82
2021/08/04 11:03:29;;;;;;;;;;;20.40;99.90;;;;;;5052909;28;20008;-85
2021/08/04 11:06:09;;;;;;;;;;;20.40;99.90;;;;;;5034455;28;19923;-78
2021/08/04 11:08:35;;;;;;;;;;;20.40;99.90;;;;;;5044314;28;19916;-80
2021/08/04 11:11:00;;;;;;;;;;;20.40;99.90;;;;;;5030079;28;20054;-79
2021/08/04 11:13:51;;;;;;;;;;;20.40;99.90;;;;;;5051518;28;20247;-78
2021/08/04 11:16:26;;;;;;;;;;;20.50;99.90;;;;;;5050729;28;20011;-77
2021/08/04 11:19:05;;;;;;;;;;;20.50;99.90;;;;;;5045434;28;20030;-77
2021/08/04 11:21:31;;;;;;;;;;;20.50;99.90;;;;;;5044567;28;20276;-77
2021/08/04 11:23:59;;;;;;;;;;;20.30;99.90;;;;;;5046581;28;19921;-78
2021/08/04 11:26:26;;;;;;;;;;;20.30;99.90;;;;;;5052258;28;20059;-85
2021/08/04 11:28:52;;;;;;;;;;;20.30;99.90;;;;;;5060863;28;19970;-81
2021/08/04 11:31:19;;;;;;;;;;;20.30;99.90;;;;;;5062900;28;19970;-77
2021/08/04 11:33:45;;;;;;;;;;;20.40;99.90;;;;;;5070708;28;19928;-79
2021/08/04 11:36:23;;;;;;;;;;;20.50;99.90;;;;;;5062700;28;19913;-83
2021/08/04 11:38:49;;;;;;;;;;;20.40;99.90;;;;;;5076850;28;19974;-77
2021/08/04 11:41:22;;;;;;;;;;;20.20;99.90;;;;;;5082763;28;19961;-82
2021/08/04 11:43:49;;;;;;;;;;;20.00;99.90;;;;;;5058688;28;19916;-78
2021/08/04 11:46:47;;;;;;;;;;;19.90;99.90;;;;;;5068724;28;20319;-82
2021/08/04 11:49:32;;;;;;;;;;;19.90;99.90;;;;;;5009140;28;19923;-78
2021/08/04 11:52:04;;;;;;;;;;;19.70;99.90;;;;;;5011328;28;19949;-80
2021/08/04 11:54:32;;;;;;;;;;;19.50;99.90;;;;;;5013774;28;20325;-80
2021/08/04 11:56:58;;;;;;;;;;;19.40;99.90;;;;;;5009343;28;19965;-77
2021/08/04 11:59:23;;;;;;;;;;;19.40;99.90;;;;;;5004769;28;19921;-77
2021/08/04 12:01:53;;;;;;;;;;;19.40;99.90;;;;;;5004297;28;20305;-77
2021/08/04 12:04:18;;;;;;;;;;;19.30;99.90;;;;;;5007820;28;19964;-78
2021/08/04 12:06:54;;;;;;;;;;;19.40;99.90;;;;;;5008835;28;20535;-78
2021/08/04 12:09:24;;;;;;;;;;;19.40;99.90;;;;;;5006541;28;19954;-76
2021/08/04 12:11:50;;;;;;;;;;;19.60;99.90;;;;;;5008705;28;20296;-85
2021/08/04 12:14:18;;;;;;;;;;;19.90;99.90;;;;;;5008489;28;19913;-81
2021/08/04 12:16:45;;;;;;;;;;;20.10;99.90;;;;;;5007765;28;19914;-86
2021/08/04 12:19:10;;;;;;;;;;;20.20;99.90;;;;;;5007086;28;20312;-77
2021/08/04 12:21:36;;;;;;;;;;;20.30;99.90;;;;;;5013482;28;19917;-78
2021/08/04 12:24:02;;;;;;;;;;;20.30;99.90;;;;;;5026873;28;19927;-76
2021/08/04 12:26:41;;;;;;;;;;;20.40;99.90;;;;;;5074775;28;20294;-80
2021/08/04 12:29:19;;;;;;;;;;;20.30;99.90;;;;;;5071863;28;19916;-81
2021/08/04 12:32:03;;;;;;;;;;;20.10;99.90;;;;;;5070860;28;20387;-76
2021/08/04 12:34:29;;;;;;;;;;;20.10;99.90;;;;;;5071586;28;20011;-84
2021/08/04 12:36:55;;;;;;;;;;;19.90;99.90;;;;;;5068788;28;20103;-77
2021/08/04 12:39:22;;;;;;;;;;;20.00;99.90;;;;;;5068270;28;20331;-80
2021/08/04 12:41:48;;;;;;;;;;;19.90;99.90;;;;;;5068621;28;19916;-76
2021/08/04 12:44:17;;;;;;;;;;;19.80;99.90;;;;;;5070923;28;19917;-80
2021/08/04 12:46:43;;;;;;;;;;;19.80;99.90;;;;;;5066320;28;19917;-77
2021/08/04 12:49:17;;;;;;;;;;;19.70;99.90;;;;;;5069722;28;19943;-87
2021/08/04 12:51:54;;;;;;;;;;;19.60;99.90;;;;;;5069109;28;19952;-76
2021/08/04 12:54:32;;;;;;;;;;;19.50;99.90;;;;;;5075452;28;19916;-86
2021/08/04 12:56:58;;;;;;;;;;;19.50;99.90;;;;;;5071863;28;20003;-77
2021/08/04 12:59:39;;;;;;;;;;;19.50;99.90;;;;;;5074866;28;20046;-77
2021/08/04 13:02:09;;;;;;;;;;;19.50;99.90;;;;;;5068404;28;20003;-76
2021/08/04 13:04:35;;;;;;;;;;;19.50;99.90;;;;;;5068809;28;19939;-77
2021/08/04 13:07:01;;;;;;;;;;;19.50;99.90;;;;;;5075283;28;20215;-80
2021/08/04 13:09:44;;;;;;;;;;;19.50;99.90;;;;;;5074200;28;19912;-78
2021/08/04 13:12:13;;;;;;;;;;;19.50;99.90;;;;;;5066606;28;19913;-82
2021/08/04 13:14:58;;;;;;;;;;;19.50;99.90;;;;;;5072636;28;19912;-78
2021/08/04 13:17:25;;;;;;;;;;;19.50;99.90;;;;;;5062338;28;19920;-76
2021/08/04 13:20:09;;;;;;;;;;;19.60;99.90;;;;;;5077278;28;20306;-81
2021/08/04 13:22:52;;;;;;;;;;;19.70;99.90;;;;;;5069232;28;19916;-76
2021/08/04 13:25:18;;;;;;;;;;;19.70;99.90;;;;;;5072793;28;19956;-77
2021/08/04 13:27:54;;;;;;;;;;;19.80;99.90;;;;;;5066391;28;19916;-77
2021/08/04 13:30:21;;;;;;;;;;;19.80;99.90;;;;;;5083361;28;19936;-78
2021/08/04 13:32:46;;;;;;;;;;;19.80;99.90;;;;;;5069691;28;19912;-76
2021/08/04 13:35:12;;;;;;;;;;;19.80;99.90;;;;;;5056803;28;19924;-76
2021/08/04 13:37:38;;;;;;;;;;;19.80;99.90;;;;;;5068712;28;19930;-84
2021/08/04 13:40:04;;;;;;;;;;;19.80;99.90;;;;;;5071335;28;19916;-78
2021/08/04 13:42:34;;;;;;;;;;;19.90;99.90;;;;;;5071119;28;19920;-78
2021/08/04 13:44:59;;;;;;;;;;;20.00;99.90;;;;;;5069134;28;20303;-81
2021/08/04 13:47:25;;;;;;;;;;;20.10;99.90;;;;;;5066244;28;19920;-80
2021/08/04 13:49:51;;;;;;;;;;;20.30;99.90;;;;;;5069481;28;20309;-78
2021/08/04 13:52:16;;;;;;;;;;;20.60;99.90;;;;;;5067525;28;19943;-81
2021/08/04 13:54:42;;;;;;;;;;;20.90;99.90;;;;;;5075884;28;19912;-79
2021/08/04 13:57:08;;;;;;;;;;;21.10;99.90;;;;;;5069032;28;20295;-77
2021/08/04 13:59:33;;;;;;;;;;;21.20;99.90;;;;;;5070526;28;20311;-77
2021/08/04 14:01:59;;;;;;;;;;;21.40;99.90;;;;;;5075049;28;19917;-77
2021/08/04 14:04:25;;;;;;;;;;;21.30;99.90;;;;;;5074734;28;19916;-77
2021/08/04 14:06:50;;;;;;;;;;;21.30;99.90;;;;;;5072162;28;19958;-80
2021/08/04 14:09:16;;;;;;;;;;;21.30;99.90;;;;;;5070526;28;19939;-77
2021/08/04 14:11:41;;;;;;;;;;;21.30;99.90;;;;;;5067549;28;19936;-77
2021/08/04 14:14:08;;;;;;;;;;;21.40;99.90;;;;;;5061843;28;19939;-78
2021/08/04 14:16:33;;;;;;;;;;;21.40;99.90;;;;;;5067382;28;19916;-77
2021/08/04 14:18:59;;;;;;;;;;;21.10;99.90;;;;;;5058448;28;19917;-78
2021/08/04 14:21:25;;;;;;;;;;;20.90;99.90;;;;;;5065633;28;19917;-88